sensor_id;sensor_type;location;lat;lon;timestamp;P1;durP1;ratioP1;P2;durP2;ratioP2
13343;SDS011;6741;48.964;9.406;2023-07-22T00:00:07;5.27;;;4.77;;
13343;SDS011;6741;48.964;9.406;2023-07-22T00:02:40;5.13;;;4.63;;
13343;SDS011;6741;48.964;9.406;2023-07-22T00:05:07;4.00;;;3.60;;
13343;SDS011;6741;48.964;9.406;2023-07-22T00:07:35;4.30;;;3.90;;
13343;SDS011;6741;48.964;9.406;2023-07-22T00:10:02;5.13;;;3.70;;
13343;SDS011;6741;48.964;9.406;2023-07-22T00:12:30;5.43;;;4.40;;
13343;SDS011;6741;48.964;9.406;2023-07-22T00:14:57;5.27;;;4.43;;
13343;SDS011;6741;48.964;9.406;2023-07-22T00:17:24;5.20;;;4.10;;
13343;SDS011;6741;48.964;9.406;2023-07-22T00:19:52;8.33;;;4.17;;
13343;SDS011;6741;48.964;9.406;2023-07-22T00:22:20;6.63;;;4.30;;
13343;SDS011;6741;48.964;9.406;2023-07-22T00:24:47;6.00;;;5.10;;
13343;SDS011;6741;48.964;9.406;2023-07-22T00:27:14;4.60;;;4.20;;
13343;SDS011;6741;48.964;9.406;2023-07-22T00:29:41;4.17;;;3.70;;
13343;SDS011;6741;48.964;9.406;2023-07-22T00:32:08;5.73;;;4.13;;
13343;SDS011;6741;48.964;9.406;2023-07-22T00:34:35;5.30;;;4.43;;
13343;SDS011;6741;48.964;9.406;2023-07-22T00:37:04;4.83;;;4.43;;
13343;SDS011;6741;48.964;9.406;2023-07-22T00:39:31;5.23;;;4.73;;
13343;SDS011;6741;48.964;9.406;2023-07-22T00:41:58;5.07;;;4.57;;
13343;SDS011;6741;48.964;9.406;2023-07-22T00:44:25;4.50;;;4.07;;
13343;SDS011;6741;48.964;9.406;2023-07-22T00:46:52;5.57;;;4.00;;
13343;SDS011;6741;48.964;9.406;2023-07-22T00:49:21;5.07;;;4.20;;
13343;SDS011;6741;48.964;9.406;2023-07-22T00:51:49;4.53;;;4.13;;
13343;SDS011;6741;48.964;9.406;2023-07-22T00:54:17;4.83;;;3.97;;
13343;SDS011;6741;48.964;9.406;2023-07-22T00:56:44;5.13;;;3.83;;
13343;SDS011;6741;48.964;9.406;2023-07-22T00:59:13;4.23;;;3.53;;
13343;SDS011;6741;48.964;9.406;2023-07-22T01:01:41;4.27;;;3.87;;
13343;SDS011;6741;48.964;9.406;2023-07-22T01:04:08;4.73;;;4.23;;
13343;SDS011;6741;48.964;9.406;2023-07-22T01:06:35;4.13;;;3.70;;
13343;SDS011;6741;48.964;9.406;2023-07-22T01:09:02;5.53;;;4.07;;
13343;SDS011;6741;48.964;9.406;2023-07-22T01:11:35;3.80;;;3.50;;
13343;SDS011;6741;48.964;9.406;2023-07-22T01:14:02;6.33;;;3.73;;
13343;SDS011;6741;48.964;9.406;2023-07-22T01:16:29;3.53;;;3.23;;
13343;SDS011;6741;48.964;9.406;2023-07-22T01:18:56;3.60;;;3.30;;
13343;SDS011;6741;48.964;9.406;2023-07-22T01:21:23;4.80;;;3.97;;
13343;SDS011;6741;48.964;9.406;2023-07-22T01:23:53;4.80;;;3.47;;
13343;SDS011;6741;48.964;9.406;2023-07-22T01:26:20;4.43;;;3.30;;
13343;SDS011;6741;48.964;9.406;2023-07-22T01:28:47;3.70;;;3.30;;
13343;SDS011;6741;48.964;9.406;2023-07-22T01:31:14;3.53;;;3.23;;
13343;SDS011;6741;48.964;9.406;2023-07-22T01:33:41;5.03;;;3.57;;
13343;SDS011;6741;48.964;9.406;2023-07-22T01:36:07;3.50;;;3.10;;
13343;SDS011;6741;48.964;9.406;2023-07-22T01:38:34;3.87;;;3.37;;
13343;SDS011;6741;48.964;9.406;2023-07-22T01:41:03;4.07;;;3.67;;
13343;SDS011;6741;48.964;9.406;2023-07-22T01:43:30;4.17;;;3.77;;
13343;SDS011;6741;48.964;9.406;2023-07-22T01:45:56;5.30;;;4.80;;
13343;SDS011;6741;48.964;9.406;2023-07-22T01:48:23;4.67;;;4.20;;
13343;SDS011;6741;48.964;9.406;2023-07-22T01:50:50;4.80;;;3.63;;
13343;SDS011;6741;48.964;9.406;2023-07-22T01:53:17;5.90;;;3.90;;
13343;SDS011;6741;48.964;9.406;2023-07-22T01:55:44;4.93;;;4.40;;
13343;SDS011;6741;48.964;9.406;2023-07-22T01:58:12;4.20;;;3.77;;
13343;SDS011;6741;48.964;9.406;2023-07-22T02:00:40;4.50;;;4.10;;
13343;SDS011;6741;48.964;9.406;2023-07-22T02:03:06;4.40;;;3.40;;
13343;SDS011;6741;48.964;9.406;2023-07-22T02:05:33;5.50;;;3.40;;
13343;SDS011;6741;48.964;9.406;2023-07-22T02:08:00;5.97;;;3.77;;
13343;SDS011;6741;48.964;9.406;2023-07-22T02:10:27;4.13;;;3.60;;
13343;SDS011;6741;48.964;9.406;2023-07-22T02:12:54;4.33;;;3.40;;
13343;SDS011;6741;48.964;9.406;2023-07-22T02:15:23;4.47;;;3.67;;
13343;SDS011;6741;48.964;9.406;2023-07-22T02:17:50;4.20;;;3.77;;
13343;SDS011;6741;48.964;9.406;2023-07-22T02:20:17;4.00;;;3.70;;
13343;SDS011;6741;48.964;9.406;2023-07-22T02:22:44;4.73;;;4.03;;
13343;SDS011;6741;48.964;9.406;2023-07-22T02:25:11;4.17;;;3.77;;
13343;SDS011;6741;48.964;9.406;2023-07-22T02:27:40;4.50;;;4.10;;
13343;SDS011;6741;48.964;9.406;2023-07-22T02:30:07;5.93;;;4.37;;
13343;SDS011;6741;48.964;9.406;2023-07-22T02:32:38;4.37;;;3.97;;
13343;SDS011;6741;48.964;9.406;2023-07-22T02:35:05;4.70;;;4.23;;
13343;SDS011;6741;48.964;9.406;2023-07-22T02:37:33;4.50;;;4.10;;
13343;SDS011;6741;48.964;9.406;2023-07-22T02:40:00;4.30;;;3.90;;
13343;SDS011;6741;48.964;9.406;2023-07-22T02:42:32;5.10;;;4.03;;
13343;SDS011;6741;48.964;9.406;2023-07-22T02:44:59;4.30;;;3.87;;
13343;SDS011;6741;48.964;9.406;2023-07-22T02:47:26;5.50;;;3.90;;
13343;SDS011;6741;48.964;9.406;2023-07-22T02:49:55;4.57;;;4.00;;
13343;SDS011;6741;48.964;9.406;2023-07-22T02:52:22;6.90;;;3.90;;
13343;SDS011;6741;48.964;9.406;2023-07-22T02:55:03;4.30;;;3.80;;
13343;SDS011;6741;48.964;9.406;2023-07-22T02:57:32;5.00;;;3.80;;
13343;SDS011;6741;48.964;9.406;2023-07-22T02:59:58;5.10;;;3.90;;
13343;SDS011;6741;48.964;9.406;2023-07-22T03:02:26;4.63;;;4.10;;
13343;SDS011;6741;48.964;9.406;2023-07-22T03:04:52;4.50;;;4.10;;
13343;SDS011;6741;48.964;9.406;2023-07-22T03:07:21;4.40;;;3.50;;
13343;SDS011;6741;48.964;9.406;2023-07-22T03:09:48;4.47;;;4.07;;
13343;SDS011;6741;48.964;9.406;2023-07-22T03:12:15;5.40;;;4.27;;
13343;SDS011;6741;48.964;9.406;2023-07-22T03:14:42;6.60;;;4.00;;
13343;SDS011;6741;48.964;9.406;2023-07-22T03:17:08;4.67;;;3.50;;
13343;SDS011;6741;48.964;9.406;2023-07-22T03:19:37;4.80;;;4.03;;
13343;SDS011;6741;48.964;9.406;2023-07-22T03:22:05;6.00;;;4.00;;
13343;SDS011;6741;48.964;9.406;2023-07-22T03:24:32;3.87;;;3.57;;
13343;SDS011;6741;48.964;9.406;2023-07-22T03:26:59;4.83;;;3.73;;
13343;SDS011;6741;48.964;9.406;2023-07-22T03:29:26;4.30;;;3.90;;
13343;SDS011;6741;48.964;9.406;2023-07-22T03:31:54;5.33;;;4.37;;
13343;SDS011;6741;48.964;9.406;2023-07-22T03:34:22;5.20;;;4.40;;
13343;SDS011;6741;48.964;9.406;2023-07-22T03:36:49;5.20;;;4.03;;
13343;SDS011;6741;48.964;9.406;2023-07-22T03:39:17;4.53;;;4.13;;
13343;SDS011;6741;48.964;9.406;2023-07-22T03:41:44;3.97;;;3.67;;
13343;SDS011;6741;48.964;9.406;2023-07-22T03:44:11;4.80;;;4.20;;
13343;SDS011;6741;48.964;9.406;2023-07-22T03:46:38;3.87;;;3.57;;
13343;SDS011;6741;48.964;9.406;2023-07-22T03:49:05;4.73;;;4.23;;
13343;SDS011;6741;48.964;9.406;2023-07-22T03:51:32;4.77;;;4.27;;
13343;SDS011;6741;48.964;9.406;2023-07-22T03:53:59;5.10;;;4.63;;
13343;SDS011;6741;48.964;9.406;2023-07-22T03:56:27;4.77;;;4.10;;
13343;SDS011;6741;48.964;9.406;2023-07-22T03:58:54;4.20;;;3.83;;
13343;SDS011;6741;48.964;9.406;2023-07-22T04:01:21;7.00;;;4.37;;
13343;SDS011;6741;48.964;9.406;2023-07-22T04:03:48;7.03;;;4.50;;
13343;SDS011;6741;48.964;9.406;2023-07-22T04:06:15;4.30;;;3.73;;
13343;SDS011;6741;48.964;9.406;2023-07-22T04:08:42;4.63;;;4.20;;
13343;SDS011;6741;48.964;9.406;2023-07-22T04:11:09;4.20;;;3.80;;
13343;SDS011;6741;48.964;9.406;2023-07-22T04:13:37;5.30;;;3.63;;
13343;SDS011;6741;48.964;9.406;2023-07-22T04:16:04;3.90;;;3.60;;
13343;SDS011;6741;48.964;9.406;2023-07-22T04:18:31;4.63;;;4.00;;
13343;SDS011;6741;48.964;9.406;2023-07-22T04:20:59;3.93;;;3.63;;
13343;SDS011;6741;48.964;9.406;2023-07-22T04:23:26;5.70;;;4.03;;
13343;SDS011;6741;48.964;9.406;2023-07-22T04:25:53;7.90;;;4.43;;
13343;SDS011;6741;48.964;9.406;2023-07-22T04:28:20;5.13;;;4.40;;
13343;SDS011;6741;48.964;9.406;2023-07-22T04:30:55;5.57;;;4.70;;
13343;SDS011;6741;48.964;9.406;2023-07-22T04:33:23;6.37;;;5.27;;
13343;SDS011;6741;48.964;9.406;2023-07-22T04:35:50;6.43;;;4.47;;
13343;SDS011;6741;48.964;9.406;2023-07-22T04:38:19;6.07;;;4.67;;
13343;SDS011;6741;48.964;9.406;2023-07-22T04:40:46;5.17;;;4.67;;
13343;SDS011;6741;48.964;9.406;2023-07-22T04:43:13;4.33;;;3.93;;
13343;SDS011;6741;48.964;9.406;2023-07-22T04:45:40;4.83;;;4.40;;
13343;SDS011;6741;48.964;9.406;2023-07-22T04:48:08;4.50;;;4.00;;
13343;SDS011;6741;48.964;9.406;2023-07-22T04:50:36;5.93;;;3.63;;
13343;SDS011;6741;48.964;9.406;2023-07-22T04:53:05;5.10;;;4.27;;
13343;SDS011;6741;48.964;9.406;2023-07-22T04:55:33;4.37;;;3.93;;
13343;SDS011;6741;48.964;9.406;2023-07-22T04:57:59;8.47;;;4.00;;
13343;SDS011;6741;48.964;9.406;2023-07-22T05:00:26;4.70;;;4.30;;
13343;SDS011;6741;48.964;9.406;2023-07-22T05:02:54;4.57;;;4.17;;
13343;SDS011;6741;48.964;9.406;2023-07-22T05:05:23;4.33;;;3.90;;
13343;SDS011;6741;48.964;9.406;2023-07-22T05:07:49;4.37;;;3.60;;
13343;SDS011;6741;48.964;9.406;2023-07-22T05:10:17;3.97;;;3.57;;
13343;SDS011;6741;48.964;9.406;2023-07-22T05:12:45;4.53;;;3.50;;
13343;SDS011;6741;48.964;9.406;2023-07-22T05:15:12;3.60;;;3.30;;
13343;SDS011;6741;48.964;9.406;2023-07-22T05:17:40;4.03;;;3.43;;
13343;SDS011;6741;48.964;9.406;2023-07-22T05:20:07;3.80;;;3.50;;
13343;SDS011;6741;48.964;9.406;2023-07-22T05:22:37;3.80;;;3.50;;
13343;SDS011;6741;48.964;9.406;2023-07-22T05:25:05;4.73;;;3.90;;
13343;SDS011;6741;48.964;9.406;2023-07-22T05:27:32;4.30;;;3.93;;
13343;SDS011;6741;48.964;9.406;2023-07-22T05:30:00;5.83;;;4.03;;
13343;SDS011;6741;48.964;9.406;2023-07-22T05:32:27;4.73;;;4.17;;
13343;SDS011;6741;48.964;9.406;2023-07-22T05:34:55;4.33;;;3.93;;
13343;SDS011;6741;48.964;9.406;2023-07-22T05:37:22;5.87;;;3.90;;
13343;SDS011;6741;48.964;9.406;2023-07-22T05:39:50;5.13;;;4.20;;
13343;SDS011;6741;48.964;9.406;2023-07-22T05:42:18;5.87;;;4.40;;
13343;SDS011;6741;48.964;9.406;2023-07-22T05:44:45;5.27;;;3.63;;
13343;SDS011;6741;48.964;9.406;2023-07-22T05:47:12;4.07;;;3.50;;
13343;SDS011;6741;48.964;9.406;2023-07-22T05:49:39;3.93;;;3.63;;
13343;SDS011;6741;48.964;9.406;2023-07-22T05:52:10;4.53;;;4.07;;
13343;SDS011;6741;48.964;9.406;2023-07-22T05:54:37;4.60;;;4.20;;
13343;SDS011;6741;48.964;9.406;2023-07-22T05:57:06;4.40;;;3.73;;
13343;SDS011;6741;48.964;9.406;2023-07-22T05:59:33;3.77;;;3.47;;
13343;SDS011;6741;48.964;9.406;2023-07-22T06:02:01;5.53;;;3.80;;
13343;SDS011;6741;48.964;9.406;2023-07-22T06:04:29;4.03;;;3.67;;
13343;SDS011;6741;48.964;9.406;2023-07-22T06:06:56;4.57;;;3.87;;
13343;SDS011;6741;48.964;9.406;2023-07-22T06:09:23;4.07;;;3.73;;
13343;SDS011;6741;48.964;9.406;2023-07-22T06:11:50;4.10;;;3.70;;
13343;SDS011;6741;48.964;9.406;2023-07-22T06:14:19;3.90;;;3.60;;
13343;SDS011;6741;48.964;9.406;2023-07-22T06:16:48;3.20;;;2.90;;
13343;SDS011;6741;48.964;9.406;2023-07-22T06:19:16;3.50;;;3.20;;
13343;SDS011;6741;48.964;9.406;2023-07-22T06:21:48;3.73;;;3.43;;
13343;SDS011;6741;48.964;9.406;2023-07-22T06:24:16;3.80;;;3.40;;
13343;SDS011;6741;48.964;9.406;2023-07-22T06:26:43;4.03;;;3.43;;
13343;SDS011;6741;48.964;9.406;2023-07-22T06:29:09;4.97;;;3.67;;
13343;SDS011;6741;48.964;9.406;2023-07-22T06:31:38;4.20;;;3.30;;
13343;SDS011;6741;48.964;9.406;2023-07-22T06:34:05;4.00;;;3.20;;
13343;SDS011;6741;48.964;9.406;2023-07-22T06:36:32;3.20;;;2.90;;
13343;SDS011;6741;48.964;9.406;2023-07-22T06:38:59;3.35;;;3.05;;
13343;SDS011;6741;48.964;9.406;2023-07-22T06:41:26;3.45;;;3.15;;
13343;SDS011;6741;48.964;9.406;2023-07-22T06:43:53;3.05;;;2.85;;
13343;SDS011;6741;48.964;9.406;2023-07-22T06:46:20;3.03;;;2.83;;
13343;SDS011;6741;48.964;9.406;2023-07-22T06:48:48;3.40;;;3.10;;
13343;SDS011;6741;48.964;9.406;2023-07-22T06:51:15;6.80;;;3.70;;
13343;SDS011;6741;48.964;9.406;2023-07-22T06:53:42;2.83;;;2.63;;
13343;SDS011;6741;48.964;9.406;2023-07-22T06:56:09;3.53;;;3.13;;
13343;SDS011;6741;48.964;9.406;2023-07-22T06:58:36;2.85;;;2.63;;
13343;SDS011;6741;48.964;9.406;2023-07-22T07:01:03;2.85;;;2.60;;
13343;SDS011;6741;48.964;9.406;2023-07-22T07:03:31;4.93;;;3.10;;
13343;SDS011;6741;48.964;9.406;2023-07-22T07:06:00;3.22;;;2.92;;
13343;SDS011;6741;48.964;9.406;2023-07-22T07:08:26;3.42;;;2.55;;
13343;SDS011;6741;48.964;9.406;2023-07-22T07:10:53;5.22;;;3.03;;
13343;SDS011;6741;48.964;9.406;2023-07-22T07:13:23;3.13;;;2.83;;
13343;SDS011;6741;48.964;9.406;2023-07-22T07:15:49;3.35;;;2.40;;
13343;SDS011;6741;48.964;9.406;2023-07-22T07:18:16;4.88;;;3.40;;
13343;SDS011;6741;48.964;9.406;2023-07-22T07:20:43;5.93;;;3.50;;
13343;SDS011;6741;48.964;9.406;2023-07-22T07:23:12;4.07;;;3.28;;
13343;SDS011;6741;48.964;9.406;2023-07-22T07:25:41;3.92;;;2.60;;
13343;SDS011;6741;48.964;9.406;2023-07-22T07:28:08;4.28;;;3.20;;
13343;SDS011;6741;48.964;9.406;2023-07-22T07:30:36;3.95;;;2.80;;
13343;SDS011;6741;48.964;9.406;2023-07-22T07:33:03;4.18;;;2.97;;
13343;SDS011;6741;48.964;9.406;2023-07-22T07:35:30;3.42;;;3.05;;
13343;SDS011;6741;48.964;9.406;2023-07-22T07:37:57;2.90;;;2.60;;
13343;SDS011;6741;48.964;9.406;2023-07-22T07:40:25;2.33;;;2.13;;
13343;SDS011;6741;48.964;9.406;2023-07-22T07:42:52;3.50;;;2.60;;
13343;SDS011;6741;48.964;9.406;2023-07-22T07:45:20;3.10;;;2.88;;
13343;SDS011;6741;48.964;9.406;2023-07-22T07:47:47;3.03;;;2.63;;
13343;SDS011;6741;48.964;9.406;2023-07-22T07:50:14;3.55;;;2.97;;
13343;SDS011;6741;48.964;9.406;2023-07-22T07:52:41;2.58;;;2.38;;
13343;SDS011;6741;48.964;9.406;2023-07-22T07:55:08;2.75;;;2.45;;
13343;SDS011;6741;48.964;9.406;2023-07-22T07:57:37;3.47;;;2.72;;
13343;SDS011;6741;48.964;9.406;2023-07-22T08:00:04;3.92;;;2.40;;
13343;SDS011;6741;48.964;9.406;2023-07-22T08:02:34;3.25;;;2.50;;
13343;SDS011;6741;48.964;9.406;2023-07-22T08:05:01;2.58;;;2.38;;
13343;SDS011;6741;48.964;9.406;2023-07-22T08:07:28;4.75;;;2.83;;
13343;SDS011;6741;48.964;9.406;2023-07-22T08:09:55;4.45;;;2.28;;
13343;SDS011;6741;48.964;9.406;2023-07-22T08:12:23;2.88;;;2.63;;
13343;SDS011;6741;48.964;9.406;2023-07-22T08:14:53;2.58;;;2.38;;
13343;SDS011;6741;48.964;9.406;2023-07-22T08:17:20;4.57;;;2.47;;
13343;SDS011;6741;48.964;9.406;2023-07-22T08:19:47;2.50;;;2.30;;
13343;SDS011;6741;48.964;9.406;2023-07-22T08:22:14;4.03;;;2.80;;
13343;SDS011;6741;48.964;9.406;2023-07-22T08:24:41;2.60;;;2.40;;
13343;SDS011;6741;48.964;9.406;2023-07-22T08:27:08;2.65;;;2.45;;
13343;SDS011;6741;48.964;9.406;2023-07-22T08:29:35;4.30;;;2.38;;
13343;SDS011;6741;48.964;9.406;2023-07-22T08:32:04;3.10;;;2.33;;
13343;SDS011;6741;48.964;9.406;2023-07-22T08:34:31;4.18;;;2.28;;
13343;SDS011;6741;48.964;9.406;2023-07-22T08:36:58;2.75;;;2.45;;
13343;SDS011;6741;48.964;9.406;2023-07-22T08:39:25;3.08;;;2.50;;
13343;SDS011;6741;48.964;9.406;2023-07-22T08:41:52;2.40;;;2.20;;
13343;SDS011;6741;48.964;9.406;2023-07-22T08:44:21;2.72;;;2.25;;
13343;SDS011;6741;48.964;9.406;2023-07-22T08:46:50;2.05;;;1.95;;
13343;SDS011;6741;48.964;9.406;2023-07-22T08:49:23;2.25;;;1.98;;
13343;SDS011;6741;48.964;9.406;2023-07-22T08:51:51;3.17;;;1.88;;
13343;SDS011;6741;48.964;9.406;2023-07-22T08:54:21;4.35;;;2.22;;
13343;SDS011;6741;48.964;9.406;2023-07-22T08:56:49;2.70;;;2.17;;
13343;SDS011;6741;48.964;9.406;2023-07-22T08:59:17;2.47;;;2.10;;
13343;SDS011;6741;48.964;9.406;2023-07-22T09:01:45;2.25;;;2.00;;
13343;SDS011;6741;48.964;9.406;2023-07-22T09:04:14;2.47;;;2.08;;
13343;SDS011;6741;48.964;9.406;2023-07-22T09:06:42;3.03;;;2.50;;
13343;SDS011;6741;48.964;9.406;2023-07-22T09:09:10;1.88;;;1.77;;
13343;SDS011;6741;48.964;9.406;2023-07-22T09:11:37;2.58;;;2.38;;
13343;SDS011;6741;48.964;9.406;2023-07-22T09:14:05;2.20;;;1.88;;
13343;SDS011;6741;48.964;9.406;2023-07-22T09:16:32;5.40;;;2.05;;
13343;SDS011;6741;48.964;9.406;2023-07-22T09:18:59;2.30;;;1.95;;
13343;SDS011;6741;48.964;9.406;2023-07-22T09:21:26;4.50;;;2.10;;
13343;SDS011;6741;48.964;9.406;2023-07-22T09:23:55;2.40;;;2.00;;
13343;SDS011;6741;48.964;9.406;2023-07-22T09:26:22;1.85;;;1.65;;
13343;SDS011;6741;48.964;9.406;2023-07-22T09:28:50;2.20;;;2.00;;
13343;SDS011;6741;48.964;9.406;2023-07-22T09:31:17;3.63;;;2.40;;
13343;SDS011;6741;48.964;9.406;2023-07-22T09:33:44;2.70;;;2.10;;
13343;SDS011;6741;48.964;9.406;2023-07-22T09:36:11;2.50;;;2.30;;
13343;SDS011;6741;48.964;9.406;2023-07-22T09:38:38;3.47;;;2.35;;
13343;SDS011;6741;48.964;9.406;2023-07-22T09:41:06;2.40;;;2.20;;
13343;SDS011;6741;48.964;9.406;2023-07-22T09:43:35;2.30;;;1.98;;
13343;SDS011;6741;48.964;9.406;2023-07-22T09:46:07;2.22;;;2.10;;
13343;SDS011;6741;48.964;9.406;2023-07-22T09:48:42;2.53;;;2.30;;
13343;SDS011;6741;48.964;9.406;2023-07-22T09:51:13;2.38;;;2.05;;
13343;SDS011;6741;48.964;9.406;2023-07-22T09:53:45;3.70;;;2.20;;
13343;SDS011;6741;48.964;9.406;2023-07-22T09:56:14;2.13;;;2.03;;
13343;SDS011;6741;48.964;9.406;2023-07-22T09:58:41;4.93;;;2.92;;
13343;SDS011;6741;48.964;9.406;2023-07-22T10:01:12;3.72;;;2.42;;
13343;SDS011;6741;48.964;9.406;2023-07-22T10:03:43;2.92;;;2.10;;
13343;SDS011;6741;48.964;9.406;2023-07-22T10:06:11;1.98;;;1.88;;
13343;SDS011;6741;48.964;9.406;2023-07-22T10:08:41;2.20;;;2.00;;
13343;SDS011;6741;48.964;9.406;2023-07-22T10:11:11;1.88;;;1.77;;
13343;SDS011;6741;48.964;9.406;2023-07-22T10:13:40;1.95;;;1.85;;
13343;SDS011;6741;48.964;9.406;2023-07-22T10:16:09;2.40;;;2.20;;
13343;SDS011;6741;48.964;9.406;2023-07-22T10:18:36;2.00;;;1.80;;
13343;SDS011;6741;48.964;9.406;2023-07-22T10:21:07;2.78;;;1.95;;
13343;SDS011;6741;48.964;9.406;2023-07-22T10:23:34;3.13;;;2.20;;
13343;SDS011;6741;48.964;9.406;2023-07-22T10:26:02;3.33;;;1.83;;
13343;SDS011;6741;48.964;9.406;2023-07-22T10:28:32;2.30;;;2.03;;
13343;SDS011;6741;48.964;9.406;2023-07-22T10:31:03;2.17;;;2.03;;
13343;SDS011;6741;48.964;9.406;2023-07-22T10:33:30;3.40;;;1.98;;
13343;SDS011;6741;48.964;9.406;2023-07-22T10:36:01;1.90;;;1.80;;
13343;SDS011;6741;48.964;9.406;2023-07-22T10:38:30;4.18;;;1.98;;
13343;SDS011;6741;48.964;9.406;2023-07-22T10:40:57;1.95;;;1.50;;
13343;SDS011;6741;48.964;9.406;2023-07-22T10:43:24;2.03;;;1.55;;
13343;SDS011;6741;48.964;9.406;2023-07-22T10:45:53;1.70;;;1.60;;
13343;SDS011;6741;48.964;9.406;2023-07-22T10:48:23;1.73;;;1.60;;
13343;SDS011;6741;48.964;9.406;2023-07-22T10:50:53;2.28;;;1.67;;
13343;SDS011;6741;48.964;9.406;2023-07-22T10:53:28;3.38;;;1.75;;
13343;SDS011;6741;48.964;9.406;2023-07-22T10:56:03;1.48;;;1.38;;
13343;SDS011;6741;48.964;9.406;2023-07-22T10:58:57;1.73;;;1.40;;
13343;SDS011;6741;48.964;9.406;2023-07-22T11:01:32;1.92;;;1.67;;
13343;SDS011;6741;48.964;9.406;2023-07-22T11:06:56;1.77;;;1.67;;
13343;SDS011;6741;48.964;9.406;2023-07-22T11:09:34;1.60;;;1.50;;
13343;SDS011;6741;48.964;9.406;2023-07-22T11:12:04;1.65;;;1.50;;
13343;SDS011;6741;48.964;9.406;2023-07-22T11:14:32;1.52;;;1.42;;
13343;SDS011;6741;48.964;9.406;2023-07-22T11:17:00;1.83;;;1.60;;
13343;SDS011;6741;48.964;9.406;2023-07-22T11:19:31;2.15;;;1.90;;
13343;SDS011;6741;48.964;9.406;2023-07-22T11:21:59;2.00;;;1.80;;
13343;SDS011;6741;48.964;9.406;2023-07-22T11:24:26;1.58;;;1.48;;
13343;SDS011;6741;48.964;9.406;2023-07-22T11:26:53;1.77;;;1.67;;
13343;SDS011;6741;48.964;9.406;2023-07-22T11:29:21;4.00;;;1.90;;
13343;SDS011;6741;48.964;9.406;2023-07-22T11:31:48;2.85;;;2.60;;
13343;SDS011;6741;48.964;9.406;2023-07-22T11:34:17;2.08;;;1.70;;
13343;SDS011;6741;48.964;9.406;2023-07-22T11:36:46;2.28;;;2.08;;
13343;SDS011;6741;48.964;9.406;2023-07-22T11:39:15;2.65;;;1.95;;
13343;SDS011;6741;48.964;9.406;2023-07-22T11:41:43;1.45;;;1.35;;
13343;SDS011;6741;48.964;9.406;2023-07-22T11:44:13;1.67;;;1.58;;
13343;SDS011;6741;48.964;9.406;2023-07-22T11:46:47;1.70;;;1.50;;
13343;SDS011;6741;48.964;9.406;2023-07-22T11:49:23;1.60;;;1.50;;
13343;SDS011;6741;48.964;9.406;2023-07-22T11:51:52;1.80;;;1.70;;
13343;SDS011;6741;48.964;9.406;2023-07-22T11:54:21;1.58;;;1.48;;
13343;SDS011;6741;48.964;9.406;2023-07-22T11:56:48;2.30;;;1.60;;
13343;SDS011;6741;48.964;9.406;2023-07-22T11:59:15;1.70;;;1.60;;
13343;SDS011;6741;48.964;9.406;2023-07-22T12:01:43;1.55;;;1.45;;
13343;SDS011;6741;48.964;9.406;2023-07-22T12:04:11;2.20;;;1.65;;
13343;SDS011;6741;48.964;9.406;2023-07-22T12:06:39;1.63;;;1.52;;
13343;SDS011;6741;48.964;9.406;2023-07-22T12:09:08;1.95;;;1.60;;
13343;SDS011;6741;48.964;9.406;2023-07-22T12:11:36;1.65;;;1.40;;
13343;SDS011;6741;48.964;9.406;2023-07-22T12:14:06;1.58;;;1.45;;
13343;SDS011;6741;48.964;9.406;2023-07-22T12:16:35;1.88;;;1.50;;
13343;SDS011;6741;48.964;9.406;2023-07-22T12:19:03;1.52;;;1.42;;
13343;SDS011;6741;48.964;9.406;2023-07-22T12:21:31;1.15;;;1.05;;
13343;SDS011;6741;48.964;9.406;2023-07-22T12:23:59;1.95;;;1.60;;
13343;SDS011;6741;48.964;9.406;2023-07-22T12:26:27;2.72;;;1.40;;
13343;SDS011;6741;48.964;9.406;2023-07-22T12:28:54;1.50;;;1.40;;
13343;SDS011;6741;48.964;9.406;2023-07-22T12:31:21;1.60;;;1.50;;
13343;SDS011;6741;48.964;9.406;2023-07-22T12:33:48;1.50;;;1.40;;
13343;SDS011;6741;48.964;9.406;2023-07-22T12:36:15;1.95;;;1.75;;
13343;SDS011;6741;48.964;9.406;2023-07-22T12:38:42;1.55;;;1.45;;
13343;SDS011;6741;48.964;9.406;2023-07-22T12:41:09;2.00;;;1.73;;
13343;SDS011;6741;48.964;9.406;2023-07-22T12:43:38;1.77;;;1.67;;
13343;SDS011;6741;48.964;9.406;2023-07-22T12:46:04;2.63;;;1.60;;
13343;SDS011;6741;48.964;9.406;2023-07-22T12:48:31;1.67;;;1.58;;
13343;SDS011;6741;48.964;9.406;2023-07-22T12:50:59;1.77;;;1.60;;
13343;SDS011;6741;48.964;9.406;2023-07-22T12:53:27;1.60;;;1.50;;
13343;SDS011;6741;48.964;9.406;2023-07-22T12:55:54;2.05;;;1.88;;
13343;SDS011;6741;48.964;9.406;2023-07-22T12:58:21;1.70;;;1.60;;
13343;SDS011;6741;48.964;9.406;2023-07-22T13:00:50;1.73;;;1.63;;
13343;SDS011;6741;48.964;9.406;2023-07-22T13:03:17;1.75;;;1.60;;
13343;SDS011;6741;48.964;9.406;2023-07-22T13:05:44;1.60;;;1.50;;
13343;SDS011;6741;48.964;9.406;2023-07-22T13:08:11;1.95;;;1.75;;
13343;SDS011;6741;48.964;9.406;2023-07-22T13:10:38;4.65;;;1.70;;
13343;SDS011;6741;48.964;9.406;2023-07-22T13:13:09;1.83;;;1.70;;
13343;SDS011;6741;48.964;9.406;2023-07-22T13:15:35;2.08;;;1.45;;
13343;SDS011;6741;48.964;9.406;2023-07-22T13:18:04;2.28;;;1.67;;
13343;SDS011;6741;48.964;9.406;2023-07-22T13:20:31;2.17;;;1.40;;
13343;SDS011;6741;48.964;9.406;2023-07-22T13:22:58;1.70;;;1.60;;
13343;SDS011;6741;48.964;9.406;2023-07-22T13:25:25;1.63;;;1.52;;
13343;SDS011;6741;48.964;9.406;2023-07-22T13:27:51;2.30;;;1.80;;
13343;SDS011;6741;48.964;9.406;2023-07-22T13:30:18;3.17;;;1.75;;
13343;SDS011;6741;48.964;9.406;2023-07-22T13:32:45;2.47;;;1.90;;
13343;SDS011;6741;48.964;9.406;2023-07-22T13:35:13;2.22;;;1.92;;
13343;SDS011;6741;48.964;9.406;2023-07-22T13:37:40;2.08;;;1.90;;
13343;SDS011;6741;48.964;9.406;2023-07-22T13:40:07;2.03;;;1.83;;
13343;SDS011;6741;48.964;9.406;2023-07-22T13:42:36;1.92;;;1.83;;
13343;SDS011;6741;48.964;9.406;2023-07-22T13:45:04;3.45;;;2.00;;
13343;SDS011;6741;48.964;9.406;2023-07-22T13:47:31;1.83;;;1.73;;
13343;SDS011;6741;48.964;9.406;2023-07-22T13:49:58;3.75;;;1.83;;
13343;SDS011;6741;48.964;9.406;2023-07-22T13:52:27;1.70;;;1.60;;
13343;SDS011;6741;48.964;9.406;2023-07-22T13:54:54;1.90;;;1.80;;
13343;SDS011;6741;48.964;9.406;2023-07-22T13:57:21;2.03;;;1.92;;
13343;SDS011;6741;48.964;9.406;2023-07-22T13:59:48;2.05;;;1.73;;
13343;SDS011;6741;48.964;9.406;2023-07-22T14:02:15;4.13;;;3.72;;
13343;SDS011;6741;48.964;9.406;2023-07-22T14:04:42;2.25;;;2.05;;
13343;SDS011;6741;48.964;9.406;2023-07-22T14:07:10;2.00;;;1.83;;
13343;SDS011;6741;48.964;9.406;2023-07-22T14:09:38;2.20;;;2.00;;
13343;SDS011;6741;48.964;9.406;2023-07-22T14:12:05;2.50;;;1.90;;
13343;SDS011;6741;48.964;9.406;2023-07-22T14:14:33;2.05;;;1.85;;
13343;SDS011;6741;48.964;9.406;2023-07-22T14:17:00;1.63;;;1.52;;
13343;SDS011;6741;48.964;9.406;2023-07-22T14:19:26;3.30;;;3.05;;
13343;SDS011;6741;48.964;9.406;2023-07-22T14:21:54;4.35;;;2.25;;
13343;SDS011;6741;48.964;9.406;2023-07-22T14:24:21;2.95;;;1.75;;
13343;SDS011;6741;48.964;9.406;2023-07-22T14:26:49;1.70;;;1.58;;
13343;SDS011;6741;48.964;9.406;2023-07-22T14:29:16;3.38;;;2.10;;
13343;SDS011;6741;48.964;9.406;2023-07-22T14:31:43;2.33;;;2.05;;
13343;SDS011;6741;48.964;9.406;2023-07-22T14:34:10;2.00;;;1.85;;
13343;SDS011;6741;48.964;9.406;2023-07-22T14:36:37;5.30;;;2.35;;
13343;SDS011;6741;48.964;9.406;2023-07-22T14:39:04;4.50;;;3.00;;
13343;SDS011;6741;48.964;9.406;2023-07-22T14:41:31;4.38;;;4.03;;
13343;SDS011;6741;48.964;9.406;2023-07-22T14:43:59;2.45;;;2.25;;
13343;SDS011;6741;48.964;9.406;2023-07-22T14:46:26;3.83;;;3.20;;
13343;SDS011;6741;48.964;9.406;2023-07-22T14:48:53;2.92;;;2.40;;
13343;SDS011;6741;48.964;9.406;2023-07-22T14:51:20;3.10;;;2.30;;
13343;SDS011;6741;48.964;9.406;2023-07-22T14:53:47;4.68;;;2.10;;
13343;SDS011;6741;48.964;9.406;2023-07-22T14:56:14;15.35;;;13.88;;
13343;SDS011;6741;48.964;9.406;2023-07-22T14:58:41;8.52;;;7.72;;
13343;SDS011;6741;48.964;9.406;2023-07-22T15:01:10;27.70;;;25.15;;
13343;SDS011;6741;48.964;9.406;2023-07-22T15:03:37;9.90;;;9.15;;
13343;SDS011;6741;48.964;9.406;2023-07-22T15:06:04;22.75;;;20.33;;